Time;durP1;ratioP1;P1;durP2;ratioP2;P2;SDS_P1;SDS_P2;PMS_P1;PMS_P2;Temp;Humidity;BMP_temperature;BMP_pressure;BME280_temperature;BME280_humidity;BME280_pressure;Samples;Min_cycle;Max_cycle;Signal;HPM_P1;HPM_P2
2021/06/17 00:00:35;;;;;;;5.07;3.85;;;24.80;96.70;;;;;;5023710;28;20057;-73
2021/06/17 00:03:06;;;;;;;4.88;3.67;;;24.70;96.70;;;;;;5022692;28;20053;-73
2021/06/17 00:05:35;;;;;;;3.88;3.58;;;24.60;96.70;;;;;;5040634;28;20055;-73
2021/06/17 00:08:06;;;;;;;7.05;3.80;;;24.60;96.70;;;;;;5035538;28;20061;-73
2021/06/17 00:10:37;;;;;;;5.60;3.72;;;24.50;96.70;;;;;;5038630;28;20199;-73
2021/06/17 00:13:09;;;;;;;3.97;3.60;;;24.50;96.70;;;;;;5036486;28;20053;-73
2021/06/17 00:15:40;;;;;;;3.97;3.67;;;24.40;96.70;;;;;;5038698;28;20049;-72
2021/06/17 00:18:12;;;;;;;4.53;3.20;;;24.50;96.70;;;;;;5039561;28;20045;-73
2021/06/17 00:20:43;;;;;;;5.70;3.60;;;24.30;96.70;;;;;;5040738;28;20033;-73
2021/06/17 00:23:14;;;;;;;4.05;3.70;;;24.30;96.70;;;;;;5037229;28;20384;-72
2021/06/17 00:26:08;;;;;;;4.28;3.50;;;24.10;96.70;;;;;;5037939;28;20043;-72
2021/06/17 00:28:36;;;;;;;6.78;3.40;;;24.00;96.70;;;;;;5036576;28;20256;-72
2021/06/17 00:31:05;;;;;;;8.43;3.88;;;24.00;96.70;;;;;;5055214;28;20041;-72
2021/06/17 00:33:36;;;;;;;4.47;3.42;;;23.90;96.70;;;;;;5037039;28;20399;-72
2021/06/17 00:36:04;;;;;;;4.13;3.50;;;23.90;96.70;;;;;;5039474;28;20041;-72
2021/06/17 00:38:32;;;;;;;4.35;3.00;;;24.00;96.70;;;;;;5038340;28;20052;-72
2021/06/17 00:41:01;;;;;;;3.72;3.35;;;23.90;96.70;;;;;;5037736;28;20038;-72
2021/06/17 00:43:30;;;;;;;5.68;3.40;;;23.90;96.70;;;;;;5035348;28;20052;-72
2021/06/17 00:45:59;;;;;;;3.80;3.50;;;23.90;96.70;;;;;;5019707;28;20044;-72
2021/06/17 00:48:28;;;;;;;6.15;3.50;;;23.90;96.70;;;;;;5035992;28;20037;-73
2021/06/17 00:51:01;;;;;;;4.72;3.33;;;23.90;96.70;;;;;;5039097;28;20556;-73
2021/06/17 00:53:32;;;;;;;4.07;3.20;;;23.80;96.70;;;;;;5031233;28;20463;-73
2021/06/17 00:56:03;;;;;;;5.35;3.70;;;23.80;96.70;;;;;;5040052;28;20037;-73
2021/06/17 00:58:32;;;;;;;4.22;3.25;;;23.80;96.70;;;;;;5037004;28;20064;-73
2021/06/17 01:01:02;;;;;;;6.05;3.80;;;23.80;96.70;;;;;;5041141;28;20040;-73
2021/06/17 01:03:32;;;;;;;5.07;3.65;;;23.90;96.70;;;;;;5038735;28;20049;-73
2021/06/17 01:06:03;;;;;;;4.38;3.55;;;24.00;96.70;;;;;;5041595;28;20033;-72
2021/06/17 01:08:46;;;;;;;4.57;3.25;;;23.90;96.70;;;;;;5037990;28;20056;-73
2021/06/17 01:11:27;;;;;;;4.05;3.47;;;23.80;96.70;;;;;;5045361;28;20041;-73
2021/06/17 01:14:01;;;;;;;3.97;3.58;;;23.90;96.70;;;;;;5042620;28;20041;-73
2021/06/17 01:16:36;;;;;;;4.50;3.70;;;24.00;96.70;;;;;;5021087;28;20045;-73
2021/06/17 01:19:15;;;;;;;4.03;3.40;;;23.90;96.70;;;;;;5043791;28;20051;-73
2021/06/17 01:22:11;;;;;;;4.38;3.80;;;23.90;96.70;;;;;;5044300;28;20341;-73
2021/06/17 01:25:02;;;;;;;4.75;3.35;;;23.90;96.70;;;;;;5038372;28;20048;-73
2021/06/17 01:28:02;;;;;;;4.95;3.20;;;24.00;96.70;;;;;;5039339;28;20045;-73
2021/06/17 01:30:33;;;;;;;3.90;3.50;;;24.00;96.70;;;;;;5038647;28;20393;-73
2021/06/17 01:33:04;;;;;;;5.75;3.50;;;23.70;96.70;;;;;;5044624;28;20450;-73
2021/06/17 01:35:40;;;;;;;3.95;3.55;;;23.90;96.70;;;;;;5042620;28;20052;-73
2021/06/17 01:41:52;;;;;;;4.90;3.63;;;23.70;96.70;;;;;;5039432;28;20052;-74
2021/06/17 01:44:23;;;;;;;4.75;3.90;;;23.80;96.70;;;;;;5041575;28;20060;-74
2021/06/17 01:46:52;;;;;;;5.07;3.70;;;23.70;96.70;;;;;;5042188;28;20122;-73
2021/06/17 01:52:52;;;;;;;4.57;3.80;;;23.80;96.70;;;;;;5041447;28;20557;-74
2021/06/17 01:55:22;;;;;;;5.15;3.65;;;23.80;96.70;;;;;;5037917;28;20036;-73
2021/06/17 01:57:51;;;;;;;4.60;3.88;;;23.60;96.70;;;;;;5041268;28;20140;-73
2021/06/17 02:00:21;;;;;;;4.47;3.30;;;23.70;96.70;;;;;;5043314;28;20083;-74
2021/06/17 02:02:50;;;;;;;4.57;3.55;;;23.80;96.70;;;;;;5040512;28;20077;-73
2021/06/17 02:08:53;;;;;;;4.55;3.55;;;23.30;96.70;;;;;;5036492;28;20060;-73
2021/06/17 02:11:35;;;;;;;4.90;3.90;;;23.30;96.70;;;;;;5039170;28;20041;-73
2021/06/17 02:14:07;;;;;;;4.00;3.60;;;23.20;96.70;;;;;;5038664;28;20040;-73
2021/06/17 02:16:42;;;;;;;3.95;3.50;;;23.30;96.70;;;;;;5038695;28;20549;-73
2021/06/17 02:19:13;;;;;;;5.47;3.83;;;23.40;96.70;;;;;;5042595;28;20065;-73
2021/06/17 02:21:49;;;;;;;4.80;3.70;;;23.50;96.70;;;;;;5038849;28;20037;-74
2021/06/17 02:24:20;;;;;;;5.47;3.90;;;23.50;96.70;;;;;;5042111;28;20041;-73
2021/06/17 02:26:54;;;;;;;3.83;3.40;;;23.50;96.70;;;;;;5039862;28;20049;-73
2021/06/17 02:29:25;;;;;;;5.18;4.10;;;23.50;96.70;;;;;;5038828;28;20032;-73
2021/06/17 02:31:58;;;;;;;3.92;3.60;;;23.50;96.70;;;;;;5041405;28;20049;-73
2021/06/17 02:34:28;;;;;;;4.70;4.05;;;23.30;96.70;;;;;;5037867;28;20139;-73
2021/06/17 02:36:59;;;;;;;3.83;3.53;;;23.20;96.70;;;;;;5038971;28;20033;-73
2021/06/17 02:39:32;;;;;;;4.50;3.58;;;23.20;96.70;;;;;;5039793;28;20061;-74
2021/06/17 02:42:05;;;;;;;5.15;3.92;;;23.20;96.70;;;;;;5041404;28;20439;-73
2021/06/17 02:44:38;;;;;;;4.83;3.90;;;23.30;96.70;;;;;;5040270;28;20514;-73
2021/06/17 02:47:12;;;;;;;5.45;4.13;;;23.40;96.70;;;;;;5039039;28;20050;-73
2021/06/17 02:49:42;;;;;;;5.70;3.88;;;23.30;96.70;;;;;;5037933;28;20068;-73
2021/06/17 02:52:13;;;;;;;4.97;3.85;;;23.20;96.70;;;;;;5039153;28;20064;-73
2021/06/17 02:54:43;;;;;;;5.35;3.45;;;23.10;96.70;;;;;;5042092;28;20453;-73
2021/06/17 02:57:23;;;;;;;5.30;3.47;;;23.10;96.70;;;;;;5036939;28;20040;-73
2021/06/17 03:00:07;;;;;;;4.88;3.45;;;23.20;96.70;;;;;;5038176;28;20570;-73
2021/06/17 03:02:48;;;;;;;4.45;4.05;;;23.20;96.70;;;;;;5033438;28;20044;-74
2021/06/17 03:05:22;;;;;;;4.50;3.90;;;23.00;96.70;;;;;;5033569;28;20041;-74
2021/06/17 03:07:59;;;;;;;3.85;3.00;;;23.00;96.70;;;;;;5038473;28;20057;-73
2021/06/17 03:10:30;;;;;;;6.30;3.80;;;23.10;96.70;;;;;;5041238;28;20197;-73
2021/06/17 03:13:02;;;;;;;4.93;4.28;;;23.10;96.70;;;;;;5041457;28;20064;-73
2021/06/17 03:15:35;;;;;;;4.15;3.47;;;23.10;96.70;;;;;;5042203;28;20045;-73
2021/06/17 03:18:07;;;;;;;4.03;3.55;;;23.10;96.70;;;;;;5037238;28;20068;-73
2021/06/17 03:20:39;;;;;;;5.78;4.03;;;23.20;96.70;;;;;;5037030;28;20040;-73
2021/06/17 03:23:14;;;;;;;5.50;3.63;;;23.20;96.70;;;;;;5037496;28;20069;-73
2021/06/17 03:25:48;;;;;;;4.35;3.50;;;23.00;96.70;;;;;;5041816;28;20434;-73
2021/06/17 03:28:19;;;;;;;4.65;3.55;;;23.00;96.70;;;;;;5032234;28;20049;-73
2021/06/17 03:30:50;;;;;;;4.53;4.13;;;23.00;96.70;;;;;;5040803;28;20053;-73
2021/06/17 03:33:25;;;;;;;3.80;3.40;;;22.90;96.70;;;;;;5035979;28;20080;-74
2021/06/17 03:35:55;;;;;;;4.22;3.30;;;23.00;96.70;;;;;;5036872;28;20075;-73
2021/06/17 03:38:42;;;;;;;6.32;4.25;;;23.00;96.70;;;;;;5041173;28;20076;-73
2021/06/17 03:41:12;;;;;;;7.78;3.75;;;23.00;96.70;;;;;;5056488;28;20072;-73
2021/06/17 03:44:03;;;;;;;5.47;3.95;;;23.00;96.70;;;;;;5039742;28;20136;-73
2021/06/17 03:46:32;;;;;;;5.60;4.05;;;23.00;96.70;;;;;;5039395;28;20033;-74
2021/06/17 03:49:03;;;;;;;5.68;3.75;;;23.00;96.70;;;;;;5040379;28;20052;-73
2021/06/17 03:51:33;;;;;;;6.55;3.85;;;23.00;96.70;;;;;;5036192;28;20041;-73
2021/06/17 03:54:01;;;;;;;5.55;4.35;;;23.10;96.70;;;;;;5035862;28;20526;-73
2021/06/17 03:56:30;;;;;;;4.22;3.72;;;23.00;96.70;;;;;;5040287;28;20356;-73
2021/06/17 03:58:59;;;;;;;7.03;3.85;;;22.90;96.70;;;;;;5040306;28;20056;-73
2021/06/17 04:01:30;;;;;;;5.60;4.25;;;22.90;96.70;;;;;;5037209;28;20037;-73
2021/06/17 04:04:06;;;;;;;6.18;4.00;;;22.80;96.70;;;;;;5039350;28;20041;-74
2021/06/17 04:06:57;;;;;;;5.32;4.07;;;22.70;96.70;;;;;;5036644;28;20057;-74
2021/06/17 04:09:29;;;;;;;4.25;3.85;;;22.90;96.70;;;;;;5040066;28;20449;-74
2021/06/17 04:12:00;;;;;;;3.70;3.33;;;22.70;96.70;;;;;;5023020;28;20045;-74
2021/06/17 04:14:30;;;;;;;4.10;3.65;;;22.70;96.70;;;;;;5038269;28;20065;-73
2021/06/17 04:16:59;;;;;;;5.28;3.60;;;22.60;96.70;;;;;;5036487;28;20037;-73
2021/06/17 04:19:33;;;;;;;5.63;3.90;;;22.80;96.70;;;;;;5040514;28;20098;-73
2021/06/17 04:22:08;;;;;;;5.10;4.60;;;22.90;96.70;;;;;;5037322;28;20537;-73
2021/06/17 04:24:41;;;;;;;5.35;4.38;;;22.90;96.70;;;;;;5036874;28;20124;-73
2021/06/17 04:27:10;;;;;;;5.28;4.13;;;22.90;96.70;;;;;;5038298;28;20037;-73
2021/06/17 04:29:39;;;;;;;5.22;4.45;;;22.80;96.70;;;;;;5036528;28;20560;-73
2021/06/17 04:32:10;;;;;;;5.28;4.22;;;22.90;96.70;;;;;;5038701;28;20045;-73
2021/06/17 04:34:41;;;;;;;7.07;4.70;;;22.90;96.70;;;;;;5037083;28;20126;-73
2021/06/17 04:37:12;;;;;;;4.43;4.00;;;23.00;96.70;;;;;;5040267;28;20040;-73
2021/06/17 04:39:42;;;;;;;5.30;4.07;;;23.00;96.70;;;;;;5039982;28;20045;-73
2021/06/17 04:42:13;;;;;;;3.88;3.55;;;23.00;96.70;;;;;;5044989;28;20051;-73
2021/06/17 04:44:43;;;;;;;5.03;4.47;;;23.10;96.70;;;;;;5024050;28;20140;-73
2021/06/17 04:47:13;;;;;;;8.60;4.47;;;23.00;96.70;;;;;;5042122;28;20043;-73
2021/06/17 04:49:44;;;;;;;6.70;4.38;;;23.00;96.70;;;;;;5042961;28;20398;-73
2021/06/17 04:52:15;;;;;;;7.32;5.32;;;23.00;96.70;;;;;;5043713;28;20071;-74
2021/06/17 04:54:43;;;;;;;7.82;4.60;;;23.00;96.70;;;;;;5043374;28;20431;-73
2021/06/17 04:57:11;;;;;;;4.78;4.32;;;23.00;96.70;;;;;;5043635;28;20124;-74
2021/06/17 04:59:39;;;;;;;5.03;4.35;;;23.10;96.70;;;;;;5040941;28;20056;-73
2021/06/17 05:02:07;;;;;;;7.90;4.50;;;23.10;96.70;;;;;;5037242;28;20045;-73
2021/06/17 05:04:36;;;;;;;6.03;4.82;;;23.10;96.70;;;;;;5040450;28;20048;-74
2021/06/17 05:12:20;;;;;;;9.07;4.05;;;23.00;96.70;;;;;;5037594;28;20044;-73
2021/06/17 05:14:48;;;;;;;6.13;4.38;;;23.10;96.70;;;;;;5039871;28;20522;-73
2021/06/17 05:17:16;;;;;;;5.15;4.20;;;23.20;96.70;;;;;;5038856;28;20051;-73
2021/06/17 05:19:44;;;;;;;5.93;4.40;;;23.20;96.70;;;;;;5043289;28;20075;-73
2021/06/17 05:22:15;;;;;;;7.43;4.80;;;23.30;96.70;;;;;;5041146;28;20078;-74
2021/06/17 05:24:43;;;;;;;6.30;4.55;;;23.30;96.70;;;;;;5026163;28;20055;-74
2021/06/17 05:27:11;;;;;;;7.45;4.60;;;23.40;96.70;;;;;;5041814;28;20040;-73
2021/06/17 05:29:39;;;;;;;6.53;5.55;;;23.40;96.70;;;;;;5042911;28;20040;-73
2021/06/17 05:32:08;;;;;;;6.47;5.38;;;23.50;96.70;;;;;;5044141;28;20045;-73
2021/06/17 05:34:35;;;;;;;9.65;5.57;;;23.50;96.70;;;;;;5026537;28;20111;-73
2021/06/17 05:37:05;;;;;;;6.13;4.90;;;23.60;96.70;;;;;;5041782;28;20033;-74
2021/06/17 05:39:35;;;;;;;7.07;4.78;;;23.60;96.70;;;;;;5040777;28;20082;-74
2021/06/17 05:42:04;;;;;;;4.93;4.53;;;23.60;96.70;;;;;;5042114;28;20041;-74
2021/06/17 05:44:32;;;;;;;13.80;4.97;;;23.60;96.70;;;;;;5043349;28;20041;-74
2021/06/17 05:47:00;;;;;;;7.05;5.55;;;23.70;96.70;;;;;;5041228;28;20402;-74
2021/06/17 05:49:28;;;;;;;16.40;8.32;;;23.80;96.70;;;;;;5042517;28;20126;-74
2021/06/17 05:51:57;;;;;;;19.58;11.07;;;23.80;96.70;;;;;;5039191;28;20044;-74
2021/06/17 05:54:25;;;;;;;14.63;8.82;;;23.70;96.70;;;;;;5027442;28;20233;-74
2021/06/17 05:56:54;;;;;;;16.33;9.10;;;23.70;96.70;;;;;;5035776;28;20058;-74
2021/06/17 05:59:23;;;;;;;13.15;8.48;;;23.60;96.70;;;;;;5040798;28;20147;-73
2021/06/17 06:01:51;;;;;;;12.13;7.63;;;23.70;96.70;;;;;;5041339;28;20044;-74
2021/06/17 06:04:19;;;;;;;11.70;7.93;;;23.80;96.70;;;;;;5043964;28;20041;-74
2021/06/17 06:06:47;;;;;;;15.30;9.32;;;23.90;96.70;;;;;;5042107;28;20065;-73
2021/06/17 06:09:15;;;;;;;18.40;11.48;;;23.80;96.70;;;;;;5042398;28;20045;-75
2021/06/17 06:11:43;;;;;;;15.13;9.93;;;23.90;96.70;;;;;;5035464;28;20126;-75
2021/06/17 06:14:13;;;;;;;13.50;8.95;;;23.80;96.70;;;;;;5039712;28;20449;-75
2021/06/17 06:16:41;;;;;;;11.60;8.30;;;23.90;96.70;;;;;;5042053;28;20075;-74
2021/06/17 06:19:10;;;;;;;20.67;13.93;;;23.90;96.70;;;;;;5024551;28;20048;-75
2021/06/17 06:21:38;;;;;;;15.38;11.35;;;23.90;96.70;;;;;;5044101;28;20063;-75
2021/06/17 06:24:07;;;;;;;15.05;9.07;;;23.90;96.70;;;;;;5037725;28;20033;-74
2021/06/17 06:26:35;;;;;;;11.38;7.70;;;24.00;96.70;;;;;;5037453;28;20491;-74
2021/06/17 06:29:03;;;;;;;8.38;6.85;;;24.10;96.70;;;;;;5039923;28;20036;-74
2021/06/17 06:31:32;;;;;;;10.20;7.47;;;24.10;96.70;;;;;;5036909;28;20402;-74
2021/06/17 06:34:00;;;;;;;10.57;7.60;;;24.10;96.70;;;;;;5038280;28;20052;-74
2021/06/17 06:36:28;;;;;;;10.57;7.07;;;24.20;96.70;;;;;;5037176;28;20069;-74
2021/06/17 06:38:56;;;;;;;11.02;7.18;;;24.20;96.70;;;;;;5039694;28;20037;-74
2021/06/17 06:41:24;;;;;;;11.93;6.60;;;24.30;96.70;;;;;;5033814;28;20045;-74
2021/06/17 06:43:52;;;;;;;7.43;6.00;;;24.30;96.70;;;;;;5037721;28;20045;-74
2021/06/17 06:46:20;;;;;;;7.43;5.68;;;24.40;96.70;;;;;;5037722;28;20553;-74
2021/06/17 06:48:50;;;;;;;6.75;6.05;;;24.40;96.70;;;;;;5037834;28;20037;-75
2021/06/17 06:51:18;;;;;;;8.55;5.95;;;24.40;96.70;;;;;;5035813;28;20034;-74
2021/06/17 06:53:46;;;;;;;6.07;5.43;;;24.50;96.70;;;;;;5037277;28;20122;-74
2021/06/17 06:56:15;;;;;;;10.77;5.63;;;24.50;96.70;;;;;;5044005;28;20495;-75
2021/06/17 06:58:43;;;;;;;7.88;5.20;;;24.60;96.70;;;;;;5034046;28;20045;-74
2021/06/17 07:01:11;;;;;;;6.25;4.82;;;24.70;96.70;;;;;;5039475;28;20063;-74
2021/06/17 07:03:40;;;;;;;6.47;5.20;;;24.70;96.70;;;;;;5037557;28;20096;-74
2021/06/17 07:06:11;;;;;;;9.30;5.60;;;24.70;96.70;;;;;;5037923;28;20033;-74
2021/06/17 07:08:39;;;;;;;8.13;6.43;;;24.80;96.70;;;;;;5033452;28;20536;-74
2021/06/17 07:11:07;;;;;;;10.20;6.10;;;24.90;96.70;;;;;;5038876;28;20431;-75
2021/06/17 07:13:35;;;;;;;6.32;5.32;;;25.00;96.70;;;;;;5024856;28;20045;-75
2021/06/17 07:16:05;;;;;;;7.15;5.28;;;25.00;96.70;;;;;;5037407;28;20033;-75
2021/06/17 07:18:33;;;;;;;8.23;5.22;;;25.10;96.70;;;;;;5041221;28;20037;-75
2021/06/17 07:21:01;;;;;;;6.68;5.28;;;25.20;96.70;;;;;;5039533;28;20098;-74
2021/06/17 07:23:33;;;;;;;5.53;4.82;;;25.30;96.70;;;;;;5037231;28;20052;-74
2021/06/17 07:26:01;;;;;;;6.00;5.30;;;25.30;96.70;;;;;;5038495;28;20140;-74
2021/06/17 07:28:30;;;;;;;7.00;5.40;;;25.40;96.70;;;;;;5050485;28;20033;-74
2021/06/17 07:30:58;;;;;;;6.32;5.28;;;25.40;96.70;;;;;;5039771;28;20052;-75
2021/06/17 07:33:29;;;;;;;8.43;5.97;;;25.50;96.70;;;;;;5037987;28;20036;-74
2021/06/17 07:35:57;;;;;;;6.22;5.65;;;25.60;96.70;;;;;;5036006;28;20059;-75
2021/06/17 07:38:25;;;;;;;8.70;6.40;;;25.60;96.70;;;;;;5038609;28;20045;-75
2021/06/17 07:40:54;;;;;;;7.22;5.47;;;25.70;96.70;;;;;;5040437;28;20049;-75
2021/06/17 07:43:22;;;;;;;7.28;5.57;;;25.70;96.70;;;;;;5039396;28;20044;-75
2021/06/17 07:45:50;;;;;;;11.25;6.15;;;25.80;96.70;;;;;;5036470;28;20135;-74
2021/06/17 07:48:18;;;;;;;7.75;6.18;;;25.80;96.70;;;;;;5035337;28;20045;-74
2021/06/17 07:50:46;;;;;;;8.27;6.00;;;25.90;96.70;;;;;;5039451;28;20039;-74
2021/06/17 07:53:14;;;;;;;5.85;5.35;;;26.00;96.70;;;;;;5037948;28;20034;-74
2021/06/17 07:55:44;;;;;;;9.18;5.70;;;26.10;96.70;;;;;;5039054;28;20043;-75
2021/06/17 07:58:14;;;;;;;7.65;6.00;;;26.10;96.70;;;;;;5041149;28;20586;-74
2021/06/17 08:00:42;;;;;;;6.45;5.85;;;26.20;96.70;;;;;;5040552;28;20496;-74
2021/06/17 08:03:10;;;;;;;6.70;6.03;;;26.30;96.70;;;;;;5035773;28;20288;-74
2021/06/17 08:05:38;;;;;;;7.22;6.10;;;26.30;96.70;;;;;;5022226;28;20179;-75
2021/06/17 08:08:07;;;;;;;9.77;6.32;;;26.40;96.70;;;;;;5036591;28;20059;-74
2021/06/17 08:10:36;;;;;;;7.78;6.00;;;26.50;96.70;;;;;;5036896;28;20434;-75
2021/06/17 08:13:04;;;;;;;7.60;6.43;;;26.60;96.70;;;;;;5038722;28;20450;-74
2021/06/17 08:15:34;;;;;;;6.65;5.82;;;26.70;96.70;;;;;;5034395;28;20041;-75
2021/06/17 08:18:02;;;;;;;6.72;6.10;;;26.80;96.70;;;;;;5037023;28;20342;-75
2021/06/17 08:20:31;;;;;;;7.35;5.90;;;26.90;96.70;;;;;;5022520;28;20029;-74
2021/06/17 08:22:59;;;;;;;6.25;5.72;;;26.80;96.70;;;;;;5034522;28;20044;-74
2021/06/17 08:25:27;;;;;;;8.32;6.40;;;26.80;96.70;;;;;;5031561;28;20522;-74
2021/06/17 08:28:00;;;;;;;7.38;6.32;;;26.80;96.70;;;;;;5040888;28;20187;-74
2021/06/17 08:30:28;;;;;;;6.82;6.13;;;26.90;96.70;;;;;;5034918;28;20065;-74
2021/06/17 08:32:58;;;;;;;14.07;7.43;;;27.00;96.70;;;;;;5041135;28;20433;-74
2021/06/17 08:35:27;;;;;;;7.70;6.30;;;27.10;96.70;;;;;;5036359;28;20065;-74
2021/06/17 08:37:55;;;;;;;7.50;6.50;;;27.10;96.70;;;;;;5036438;28;20507;-74
2021/06/17 08:40:26;;;;;;;6.88;6.18;;;27.20;96.70;;;;;;5035668;28;20148;-75
2021/06/17 08:42:54;;;;;;;5.93;5.43;;;27.20;96.70;;;;;;5036780;28;20045;-75
2021/06/17 08:45:23;;;;;;;7.28;5.88;;;27.30;96.70;;;;;;5037160;28;20525;-75
2021/06/17 08:47:51;;;;;;;8.07;5.57;;;27.30;96.70;;;;;;5042521;28;20405;-74
2021/06/17 08:50:21;;;;;;;7.15;5.90;;;27.40;96.70;;;;;;5037501;28;20055;-74
2021/06/17 08:52:49;;;;;;;9.15;6.15;;;27.50;96.70;;;;;;5040060;28;20545;-74
2021/06/17 08:55:19;;;;;;;7.03;6.28;;;27.50;96.70;;;;;;5038052;28;20506;-75
2021/06/17 08:57:49;;;;;;;6.55;5.82;;;27.50;96.70;;;;;;5038375;28;20052;-74
2021/06/17 09:00:38;;;;;;;5.90;5.30;;;27.70;96.70;;;;;;5040678;28;20114;-74
2021/06/17 09:03:08;;;;;;;6.78;6.13;;;27.70;96.70;;;;;;5036727;28;20063;-74
2021/06/17 09:05:42;;;;;;;6.13;5.60;;;27.80;96.70;;;;;;5051266;28;20053;-74
2021/06/17 09:08:14;;;;;;;6.45;5.03;;;27.90;96.70;;;;;;5037874;28;20052;-74
2021/06/17 09:10:43;;;;;;;6.22;5.68;;;28.10;96.70;;;;;;5033240;28;20135;-74
2021/06/17 09:13:12;;;;;;;7.05;5.60;;;28.00;96.70;;;;;;5040310;28;20561;-74
2021/06/17 09:15:43;;;;;;;7.85;5.68;;;28.00;96.70;;;;;;5037178;28;20061;-74
2021/06/17 09:18:21;;;;;;;6.20;5.35;;;28.00;96.70;;;;;;5036776;28;20088;-74
2021/06/17 09:20:53;;;;;;;7.03;6.20;;;28.10;96.70;;;;;;5039518;28;20087;-74
2021/06/17 09:23:27;;;;;;;9.43;6.13;;;28.00;96.70;;;;;;5037713;28;20065;-74
2021/06/17 09:25:58;;;;;;;8.63;6.00;;;28.00;96.70;;;;;;5037181;28;20075;-73
2021/06/17 09:28:43;;;;;;;7.95;5.93;;;28.10;96.70;;;;;;5026753;28;20049;-74
2021/06/17 09:31:16;;;;;;;6.72;5.95;;;28.00;96.70;;;;;;5042184;28;20564;-74
2021/06/17 09:33:46;;;;;;;7.70;5.78;;;28.00;96.70;;;;;;5023330;28;20140;-74
2021/06/17 09:36:19;;;;;;;6.18;5.63;;;28.10;96.70;;;;;;5045348;28;20041;-74
2021/06/17 09:38:49;;;;;;;5.70;5.20;;;28.30;96.70;;;;;;5041222;28;20076;-74
2021/06/17 09:41:33;;;;;;;5.18;4.68;;;28.50;95.50;;;;;;5041857;28;20036;-74
2021/06/17 09:44:01;;;;;;;5.45;4.95;;;28.50;94.30;;;;;;5041513;28;20037;-74
2021/06/17 09:46:30;;;;;;;6.15;4.63;;;28.60;94.50;;;;;;5041716;28;20537;-74
2021/06/17 09:49:05;;;;;;;5.90;5.25;;;28.60;94.50;;;;;;5040861;28;20114;-74
2021/06/17 09:51:38;;;;;;;6.15;5.50;;;28.70;94.50;;;;;;5036009;28;20073;-74
2021/06/17 09:54:13;;;;;;;5.75;5.20;;;28.80;94.70;;;;;;5043888;28;20134;-74
2021/06/17 09:56:43;;;;;;;9.77;5.43;;;28.80;94.20;;;;;;5025297;28;20045;-74
2021/06/17 09:59:11;;;;;;;5.25;4.72;;;28.90;94.10;;;;;;5042334;28;20425;-74
2021/06/17 10:01:45;;;;;;;5.00;4.60;;;28.90;92.00;;;;;;5026310;28;20379;-74
2021/06/17 10:04:16;;;;;;;5.25;4.50;;;28.90;91.10;;;;;;5043546;28;20106;-74
2021/06/17 10:06:46;;;;;;;5.18;4.72;;;29.00;90.90;;;;;;5041161;28;20071;-74
2021/06/17 10:09:18;;;;;;;6.50;5.30;;;29.30;90.10;;;;;;5042878;28;20635;-74
2021/06/17 10:11:47;;;;;;;7.70;5.63;;;29.20;91.20;;;;;;5043313;28;20072;-75
2021/06/17 10:14:16;;;;;;;8.50;5.07;;;29.20;91.50;;;;;;5040589;28;20041;-74
2021/06/17 10:16:45;;;;;;;6.03;5.40;;;29.30;92.20;;;;;;5036976;28;20072;-74
2021/06/17 10:19:15;;;;;;;6.55;5.30;;;29.50;92.40;;;;;;5043093;28;20066;-74
2021/06/17 10:21:45;;;;;;;5.47;4.97;;;29.50;91.70;;;;;;5040212;28;20511;-74
2021/06/17 10:24:16;;;;;;;6.18;5.57;;;29.50;91.30;;;;;;5037770;28;20102;-75
2021/06/17 10:26:46;;;;;;;7.45;5.05;;;29.50;91.60;;;;;;5042051;28;20140;-74
2021/06/17 10:29:35;;;;;;;6.25;4.70;;;29.60;92.20;;;;;;5038211;28;20148;-74
2021/06/17 10:32:05;;;;;;;5.80;4.55;;;29.80;91.70;;;;;;5041793;28;20045;-74
2021/06/17 10:34:38;;;;;;;5.80;5.30;;;30.00;91.10;;;;;;5038119;28;20474;-75
2021/06/17 10:37:14;;;;;;;5.43;4.47;;;30.10;91.00;;;;;;5039316;28;20185;-74
2021/06/17 10:39:44;;;;;;;9.93;5.57;;;30.30;90.10;;;;;;5041815;28;20431;-74
2021/06/17 10:42:28;;;;;;;5.47;4.97;;;30.30;90.10;;;;;;5042577;28;20090;-74
2021/06/17 10:44:57;;;;;;;6.05;5.30;;;30.50;89.70;;;;;;5036535;28;20049;-74
2021/06/17 10:47:54;;;;;;;5.07;4.57;;;30.60;90.40;;;;;;5035063;28;20135;-74
2021/06/17 10:50:28;;;;;;;5.40;4.80;;;30.70;89.40;;;;;;5038363;28;20037;-74
2021/06/17 10:53:16;;;;;;;6.05;4.80;;;30.80;88.70;;;;;;5036278;28;20045;-74
2021/06/17 10:56:07;;;;;;;5.45;4.53;;;30.80;88.50;;;;;;5038077;28;20042;-74
2021/06/17 10:58:52;;;;;;;5.07;4.60;;;31.00;88.30;;;;;;5032326;28;20052;-74
2021/06/17 11:01:23;;;;;;;5.10;4.70;;;31.00;88.40;;;;;;5039220;28;20052;-74
2021/06/17 11:04:18;;;;;;;8.27;5.35;;;30.90;88.50;;;;;;5040407;28;20667;-75
2021/06/17 11:07:11;;;;;;;5.65;4.70;;;30.90;89.10;;;;;;5024027;28;20403;-74
2021/06/17 11:10:01;;;;;;;5.43;4.93;;;31.00;89.50;;;;;;5029064;28;20059;-74
2021/06/17 11:12:58;;;;;;;4.43;4.03;;;31.40;87.70;;;;;;5041621;28;20143;-74
2021/06/17 11:15:46;;;;;;;6.72;5.13;;;31.40;85.10;;;;;;5037725;28;20455;-75
2021/06/17 11:18:35;;;;;;;4.75;4.28;;;31.10;86.20;;;;;;5038820;28;20064;-74
2021/06/17 11:21:04;;;;;;;6.82;4.97;;;31.30;86.00;;;;;;5037408;28;20387;-74
2021/06/17 11:23:32;;;;;;;5.03;4.53;;;31.30;85.80;;;;;;5042146;28;20036;-74
2021/06/17 11:26:06;;;;;;;6.32;4.15;;;31.60;86.00;;;;;;5039233;28;20048;-74
2021/06/17 11:28:55;;;;;;;5.90;4.50;;;31.80;84.80;;;;;;5037912;28;20072;-74
2021/06/17 11:31:40;;;;;;;5.05;4.03;;;32.00;83.20;;;;;;5038275;28;20135;-74
2021/06/17 11:34:09;;;;;;;4.30;3.90;;;32.00;82.90;;;;;;5040225;28;20044;-74
2021/06/17 11:36:47;;;;;;;6.63;4.10;;;32.00;83.20;;;;;;5042121;28;20037;-74
2021/06/17 11:39:20;;;;;;;5.18;4.10;;;32.00;84.10;;;;;;5037839;28;20037;-74
2021/06/17 11:42:01;;;;;;;6.00;3.90;;;32.10;82.80;;;;;;5038843;28;20041;-75
2021/06/17 11:44:31;;;;;;;4.45;4.03;;;32.20;82.80;;;;;;5037419;28;20044;-74
2021/06/17 11:47:03;;;;;;;4.50;4.10;;;32.20;82.20;;;;;;5037691;28;20068;-74
2021/06/17 11:49:33;;;;;;;5.18;4.05;;;32.20;81.80;;;;;;5042455;28;20049;-74
2021/06/17 11:52:06;;;;;;;4.90;4.25;;;32.40;81.30;;;;;;5035552;28;20033;-74
2021/06/17 11:54:34;;;;;;;5.90;4.43;;;32.40;81.50;;;;;;5041678;28;20040;-74
2021/06/17 11:57:05;;;;;;;5.03;4.07;;;32.50;81.50;;;;;;5050116;28;20045;-74
2021/06/17 11:59:36;;;;;;;4.65;4.13;;;32.60;81.30;;;;;;5035617;28;20048;-74
2021/06/17 12:02:19;;;;;;;5.53;3.85;;;32.70;80.60;;;;;;5041445;28;20162;-74
2021/06/17 12:04:55;;;;;;;7.32;4.32;;;32.80;79.40;;;;;;5040311;28;20073;-74
2021/06/17 12:07:36;;;;;;;4.35;4.00;;;32.70;80.20;;;;;;5039158;28;20053;-74
2021/06/17 12:10:09;;;;;;;6.63;4.25;;;32.60;80.40;;;;;;5034142;28;20053;-74
2021/06/17 12:12:41;;;;;;;3.95;3.55;;;32.70;80.10;;;;;;5038250;28;20078;-74
2021/06/17 12:15:10;;;;;;;4.60;4.07;;;32.80;79.30;;;;;;5039217;28;20095;-74
2021/06/17 12:17:41;;;;;;;4.45;3.80;;;32.80;78.80;;;;;;5024475;28;20048;-74
2021/06/17 12:20:13;;;;;;;3.80;3.47;;;32.80;78.10;;;;;;5037721;28;20114;-74
2021/06/17 12:22:44;;;;;;;4.97;3.47;;;33.00;77.50;;;;;;5034003;28;20037;-74
2021/06/17 12:25:17;;;;;;;6.65;3.80;;;33.10;77.90;;;;;;5036481;28;20057;-75
2021/06/17 12:27:48;;;;;;;4.03;3.33;;;33.10;78.10;;;;;;5040150;28;20129;-74
2021/06/17 12:30:28;;;;;;;4.10;3.35;;;33.30;76.20;;;;;;5038798;28;20128;-75
2021/06/17 12:33:06;;;;;;;4.10;3.28;;;33.30;76.10;;;;;;5037547;28;20044;-75
2021/06/17 12:35:48;;;;;;;4.75;3.78;;;33.40;76.10;;;;;;5034730;28;20052;-74
2021/06/17 12:38:25;;;;;;;3.65;3.33;;;33.40;76.30;;;;;;5040603;28;20041;-74
2021/06/17 12:40:54;;;;;;;4.45;3.45;;;33.50;76.70;;;;;;5039607;28;20045;-74
2021/06/17 12:43:26;;;;;;;3.95;3.53;;;33.40;75.70;;;;;;5036523;28;20094;-75
2021/06/17 12:46:02;;;;;;;5.75;3.55;;;33.30;76.10;;;;;;5035781;28;20561;-74
2021/06/17 12:54:03;;;;;;;4.20;3.65;;;33.60;75.60;;;;;;5036217;28;20061;-75
2021/06/17 12:56:32;;;;;;;4.18;3.42;;;33.50;76.80;;;;;;5039327;28;20041;-74
2021/06/17 12:59:02;;;;;;;3.97;3.60;;;33.60;76.40;;;;;;5022132;28;20052;-74
2021/06/17 13:01:45;;;;;;;4.45;3.75;;;33.50;77.00;;;;;;5040731;28;20503;-74
2021/06/17 13:04:15;;;;;;;4.82;3.75;;;33.80;76.60;;;;;;5040599;28;20033;-75
2021/06/17 13:06:43;;;;;;;8.02;3.80;;;34.10;76.20;;;;;;5041396;28;20107;-74
2021/06/17 13:09:23;;;;;;;4.00;3.15;;;34.30;73.90;;;;;;5039402;28;20051;-74
2021/06/17 13:12:13;;;;;;;5.55;3.38;;;34.50;74.90;;;;;;5042129;28;20045;-74
2021/06/17 13:15:05;;;;;;;4.38;3.65;;;34.90;74.00;;;;;;5034756;28;20050;-75
2021/06/17 13:17:36;;;;;;;4.03;3.50;;;34.90;73.00;;;;;;5039399;28;20071;-74
2021/06/17 13:20:07;;;;;;;3.40;3.10;;;34.80;70.90;;;;;;5041306;28;20033;-74
2021/06/17 13:22:53;;;;;;;4.25;2.65;;;34.80;71.20;;;;;;5040847;28;20071;-74
2021/06/17 13:25:29;;;;;;;3.88;3.35;;;35.00;70.70;;;;;;5042233;28;20059;-75
2021/06/17 13:27:58;;;;;;;5.70;3.20;;;35.30;71.40;;;;;;5040215;28;20462;-75
2021/06/17 13:30:30;;;;;;;3.05;2.75;;;35.60;70.40;;;;;;5038013;28;20064;-74
2021/06/17 13:33:01;;;;;;;3.80;3.05;;;35.50;70.20;;;;;;5042451;28;20753;-74